createdAt,value
2023-04-09T00:02:22.424Z,101035.71
2023-04-09T00:04:52.915Z,101036.11
2023-04-09T00:07:23.508Z,101036.20
2023-04-09T00:09:53.979Z,101034.81
2023-04-09T00:12:24.480Z,101034.96
2023-04-09T00:14:55.692Z,101035.98
2023-04-09T00:17:26.201Z,101035.66
2023-04-09T00:19:56.759Z,101033.44
2023-04-09T00:22:27.287Z,101031.55
2023-04-09T00:24:58.409Z,101030.71
2023-04-09T00:27:28.850Z,101032.77
2023-04-09T00:29:59.270Z,101032.40
2023-04-09T00:32:29.751Z,101032.33
2023-04-09T00:35:00.316Z,101033.96
2023-04-09T00:37:30.831Z,101035.06
2023-04-09T00:40:01.354Z,101032.98
2023-04-09T00:42:35.213Z,101033.61
2023-04-09T00:45:06.508Z,101037.67
2023-04-09T00:47:37.364Z,101035.23
2023-04-09T00:50:09.224Z,101035.70
2023-04-09T00:52:40.573Z,101037.63
2023-04-09T00:55:13.686Z,101037.13
2023-04-09T00:57:44.140Z,101036.24
2023-04-09T01:00:16.658Z,101037.29
2023-04-09T01:02:47.488Z,101036.94
2023-04-09T01:05:18.281Z,101040.89
2023-04-09T01:08:02.832Z,101041.38
2023-04-09T01:10:40.555Z,101039.27
2023-04-09T01:13:17.089Z,101040.23
2023-04-09T01:15:53.303Z,101034.20
2023-04-09T01:18:30.349Z,101036.54
2023-04-09T01:21:06.204Z,101035.98
2023-04-09T01:23:48.017Z,101040.36
2023-04-09T01:26:33.464Z,101045.77
2023-04-09T01:29:06.975Z,101051.78
2023-04-09T01:31:43.112Z,101056.33
2023-04-09T01:34:15.711Z,101064.08
2023-04-09T01:36:51.366Z,101066.02
2023-04-09T01:39:22.291Z,101066.97
2023-04-09T01:41:53.960Z,101066.95
2023-04-09T01:44:27.328Z,101068.19
2023-04-09T01:46:59.223Z,101074.55
2023-04-09T01:49:30.872Z,101073.02
2023-04-09T01:52:01.694Z,101076.81
2023-04-09T01:54:33.052Z,101077.15
2023-04-09T01:57:03.503Z,101072.17
2023-04-09T01:59:33.991Z,101075.44
2023-04-09T02:02:11.972Z,101082.64
2023-04-09T02:04:47.306Z,101080.05
2023-04-09T02:07:27.589Z,101077.84
2023-04-09T02:10:00.509Z,101076.17
2023-04-09T02:12:34.771Z,101074.98
2023-04-09T02:15:07.335Z,101073.39
2023-04-09T02:17:37.991Z,101070.73
2023-04-09T02:20:11.526Z,101077.52
2023-04-09T02:22:42.725Z,101076.61
2023-04-09T02:25:13.446Z,101075.02
2023-04-09T02:27:43.881Z,101080.11
2023-04-09T02:30:14.821Z,101075.80
2023-04-09T02:32:45.446Z,101075.08
2023-04-09T02:35:16.098Z,101075.29
2023-04-09T02:37:46.644Z,101075.45
2023-04-09T02:40:17.226Z,101073.75
2023-04-09T02:42:47.680Z,101073.34
2023-04-09T02:45:18.895Z,101077.20
2023-04-09T02:47:49.511Z,101076.24
2023-04-09T02:50:20.660Z,101080.94
2023-04-09T02:52:52.909Z,101080.70
2023-04-09T02:55:24.031Z,101082.57
2023-04-09T02:57:54.504Z,101081.36
2023-04-09T03:00:25.067Z,101078.41
2023-04-09T03:02:56.394Z,101078.04
2023-04-09T03:05:27.841Z,101074.94
2023-04-09T03:07:58.657Z,101072.73
2023-04-09T03:10:29.525Z,101075.50
2023-04-09T03:13:00.987Z,101076.87
2023-04-09T03:15:31.906Z,101071.01
2023-04-09T03:18:02.893Z,101069.79
2023-04-09T03:20:35.224Z,101066.93
2023-04-09T03:23:06.769Z,101066.14
2023-04-09T03:25:42.329Z,101065.94
2023-04-09T03:28:18.270Z,101064.55
2023-04-09T03:30:52.005Z,101066.42
2023-04-09T03:33:22.953Z,101065.19
2023-04-09T03:36:01.795Z,101064.11
2023-04-09T03:38:43.131Z,101063.17
2023-04-09T03:41:24.406Z,101061.00
2023-04-09T03:43:55.688Z,101059.90
2023-04-09T03:46:28.431Z,101063.25
2023-04-09T03:49:00.771Z,101063.51
2023-04-09T03:51:39.634Z,101066.55
2023-04-09T03:54:10.583Z,101066.84
2023-04-09T03:56:41.532Z,101066.83
2023-04-09T03:59:14.822Z,101064.94
2023-04-09T04:01:48.275Z,101061.63
2023-04-09T04:04:21.988Z,101064.71
2023-04-09T04:06:58.576Z,101070.77
2023-04-09T04:09:52.868Z,101070.39
2023-04-09T04:12:23.803Z,101074.81
2023-04-09T04:15:15.119Z,101076.30
2023-04-09T04:17:49.815Z,101080.05
2023-04-09T04:20:30.207Z,101082.34
2023-04-09T04:23:05.663Z,101085.89
2023-04-09T04:25:37.107Z,101087.83
2023-04-09T04:28:08.450Z,101084.25
2023-04-09T04:30:45.805Z,101081.77
2023-04-09T04:33:17.709Z,101086.23
2023-04-09T04:35:53.500Z,101092.92
2023-04-09T04:38:50.923Z,101097.02
2023-04-09T04:41:31.502Z,101095.98
2023-04-09T04:44:22.599Z,101096.14
2023-04-09T04:46:56.616Z,101095.74
2023-04-09T04:49:27.549Z,101094.00
2023-04-09T04:51:58.975Z,101094.23
2023-04-09T04:54:29.913Z,101092.24
2023-04-09T04:57:01.282Z,101092.83
2023-04-09T04:59:50.371Z,101092.58
2023-04-09T05:02:21.832Z,101091.81
2023-04-09T05:05:13.055Z,101093.77
2023-04-09T05:07:49.048Z,101098.80
2023-04-09T05:10:20.950Z,101099.48
2023-04-09T05:12:51.816Z,101103.91
2023-04-09T05:15:28.760Z,101102.91
2023-04-09T05:17:59.747Z,101102.08
2023-04-09T05:20:31.672Z,101101.41
2023-04-09T05:23:10.407Z,101105.67
2023-04-09T05:25:45.211Z,101105.23
2023-04-09T05:28:22.469Z,101109.96
2023-04-09T05:30:56.805Z,101109.44
2023-04-09T05:33:27.560Z,101107.25
2023-04-09T05:35:58.181Z,101109.30
2023-04-09T05:38:28.907Z,101111.86
2023-04-09T05:41:01.191Z,101118.50
2023-04-09T05:43:31.933Z,101121.58
2023-04-09T05:46:02.434Z,101122.79
2023-04-09T05:48:32.926Z,101124.48
2023-04-09T05:51:05.055Z,101126.35
2023-04-09T05:53:37.214Z,101127.16
2023-04-09T05:56:16.591Z,101124.88
2023-04-09T05:58:54.324Z,101129.86
2023-04-09T06:01:24.978Z,101132.18
2023-04-09T06:03:58.071Z,101128.44
2023-04-09T06:06:29.234Z,101124.40
2023-04-09T06:08:59.962Z,101126.20
2023-04-09T06:11:30.785Z,101127.29
2023-04-09T06:14:01.389Z,101126.21
2023-04-09T06:16:31.898Z,101123.89
2023-04-09T06:19:02.359Z,101125.32
2023-04-09T06:21:33.712Z,101122.65
2023-04-09T06:24:04.173Z,101126.81
2023-04-09T06:26:34.615Z,101123.64
2023-04-09T06:29:05.100Z,101122.14
2023-04-09T06:31:35.739Z,101124.06
2023-04-09T06:34:06.397Z,101116.84
2023-04-09T06:36:37.757Z,101113.66
2023-04-09T06:39:08.377Z,101111.14
2023-04-09T06:41:38.873Z,101108.86
2023-04-09T06:44:16.367Z,101106.77
2023-04-09T06:46:46.865Z,101110.64
2023-04-09T06:49:17.400Z,101136.35
2023-04-09T06:51:47.849Z,101144.27
2023-04-09T06:54:18.357Z,101137.92
2023-04-09T06:56:48.786Z,101130.52
2023-04-09T06:59:19.255Z,101137.10
2023-04-09T07:01:51.488Z,101136.48
2023-04-09T07:04:24.257Z,101133.41
2023-04-09T07:06:55.453Z,101133.94
2023-04-09T07:09:25.983Z,101133.85
2023-04-09T07:11:56.433Z,101133.36
2023-04-09T07:14:27.310Z,101132.30
2023-04-09T07:16:57.788Z,101135.50
2023-04-09T07:19:28.277Z,101139.75
2023-04-09T07:21:58.844Z,101141.52
2023-04-09T07:24:29.290Z,101146.05
2023-04-09T07:26:59.809Z,101147.94
2023-04-09T07:29:30.738Z,101152.39
2023-04-09T07:32:01.413Z,101153.60
2023-04-09T07:34:32.092Z,101153.77
2023-04-09T07:37:03.020Z,101155.41
2023-04-09T07:39:33.485Z,101155.58
2023-04-09T07:42:06.582Z,101155.92
2023-04-09T07:44:38.732Z,101156.02
2023-04-09T07:47:08.746Z,101152.69
2023-04-09T07:49:39.844Z,101149.94
2023-04-09T07:52:10.867Z,101147.48
2023-04-09T07:54:41.628Z,101142.96
2023-04-09T07:57:12.493Z,101142.52
2023-04-09T07:59:43.196Z,101145.64
2023-04-09T08:02:15.301Z,101146.38
2023-04-09T08:04:46.204Z,101149.67
2023-04-09T08:07:16.861Z,101148.65
2023-04-09T08:09:47.310Z,101151.21
2023-04-09T08:12:17.982Z,101152.77
2023-04-09T08:14:48.770Z,101157.79
2023-04-09T08:17:19.213Z,101162.73
2023-04-09T08:19:50.235Z,101166.63
2023-04-09T08:22:20.679Z,101162.29
2023-04-09T08:24:54.997Z,101159.30
2023-04-09T08:27:25.533Z,101157.04
2023-04-09T08:29:56.057Z,101154.73
2023-04-09T08:32:27.403Z,101149.34
2023-04-09T08:34:57.948Z,101148.38
2023-04-09T08:37:29.822Z,101150.02
2023-04-09T08:40:00.407Z,101157.08
2023-04-09T08:42:32.700Z,101156.81
2023-04-09T08:45:06.953Z,101161.79
2023-04-09T08:47:39.510Z,101162.64
2023-04-09T08:50:11.755Z,101162.63
2023-04-09T08:52:43.922Z,101159.98
2023-04-09T08:55:14.653Z,101160.29
2023-04-09T08:57:45.152Z,101159.11
2023-04-09T09:00:17.121Z,101158.58
2023-04-09T09:03:08.242Z,101163.85
2023-04-09T09:05:42.909Z,101160.18
2023-04-09T09:08:15.764Z,101160.98
2023-04-09T09:10:47.731Z,101159.86
2023-04-09T09:13:23.468Z,101158.77
2023-04-09T09:15:56.507Z,101157.11
2023-04-09T09:18:41.093Z,101162.00
2023-04-09T09:21:16.526Z,101164.89
2023-04-09T09:23:48.488Z,101164.64
2023-04-09T09:26:20.658Z,101161.96
2023-04-09T09:28:50.571Z,101164.02
2023-04-09T09:31:23.655Z,101167.35
2023-04-09T09:33:54.344Z,101172.23
2023-04-09T09:36:35.852Z,101170.10
2023-04-09T09:39:10.375Z,101168.66
2023-04-09T09:41:42.362Z,101168.72
2023-04-09T09:44:14.192Z,101166.95
2023-04-09T09:46:44.635Z,101167.48
2023-04-09T09:49:15.142Z,101165.69
2023-04-09T09:51:46.232Z,101165.30
2023-04-09T09:54:23.277Z,101162.73
2023-04-09T09:56:56.065Z,101163.02
2023-04-09T09:59:35.760Z,101157.86
2023-04-09T10:02:08.184Z,101153.87
2023-04-09T10:04:39.655Z,101149.10
2023-04-09T10:07:10.941Z,101150.55
2023-04-09T10:09:47.018Z,101148.27
2023-04-09T10:12:17.763Z,101151.27
2023-04-09T10:14:49.112Z,101149.56
2023-04-09T10:17:21.090Z,101152.98
2023-04-09T10:19:58.046Z,101156.89
2023-04-09T10:22:32.585Z,101149.58
2023-04-09T10:25:03.989Z,101147.36
2023-04-09T10:27:34.621Z,101147.17
2023-04-09T10:30:10.412Z,101148.52
2023-04-09T10:32:42.726Z,101158.30
2023-04-09T10:35:13.209Z,101166.52
2023-04-09T10:37:52.455Z,101156.02
2023-04-09T10:40:23.720Z,101149.39
2023-04-09T10:42:55.956Z,101147.23
2023-04-09T10:45:28.733Z,101142.03
2023-04-09T10:48:04.182Z,101143.88
2023-04-09T10:50:36.559Z,101144.47
2023-04-09T10:53:07.129Z,101147.23
2023-04-09T10:55:39.901Z,101148.12
2023-04-09T10:58:13.499Z,101146.19
2023-04-09T11:00:45.841Z,101143.98
2023-04-09T11:03:29.152Z,101141.06
2023-04-09T11:06:02.689Z,101143.84
2023-04-09T11:08:34.310Z,101145.67
2023-04-09T11:11:05.961Z,101146.35
2023-04-09T11:13:36.852Z,101144.88
2023-04-09T11:16:08.428Z,101144.52
2023-04-09T11:18:39.019Z,101150.09
2023-04-09T11:21:10.479Z,101148.73
2023-04-09T11:23:41.092Z,101146.86
2023-04-09T11:26:13.669Z,101145.18
2023-04-09T11:28:45.374Z,101147.61
2023-04-09T11:31:16.661Z,101148.00
2023-04-09T11:33:52.216Z,101148.09
2023-04-09T11:36:24.087Z,101146.27
2023-04-09T11:38:55.241Z,101142.09
2023-04-09T11:41:36.723Z,101138.84
2023-04-09T11:44:08.686Z,101135.86
2023-04-09T11:46:40.141Z,101136.08
2023-04-09T11:49:11.149Z,101134.31
2023-04-09T11:51:41.675Z,101133.24
2023-04-09T11:54:14.391Z,101131.64
2023-04-09T11:56:44.868Z,101135.20
2023-04-09T11:59:17.049Z,101134.61
2023-04-09T12:01:49.718Z,101137.10
2023-04-09T12:04:24.077Z,101139.55
2023-04-09T12:06:59.679Z,101142.05
2023-04-09T12:09:30.163Z,101138.38
2023-04-09T12:12:02.166Z,101140.35
2023-04-09T12:14:33.892Z,101144.41
2023-04-09T12:17:04.355Z,101148.83
2023-04-09T12:19:37.567Z,101151.64
2023-04-09T12:22:07.988Z,101150.19
2023-04-09T12:24:38.662Z,101147.75
2023-04-09T12:27:10.950Z,101147.44
2023-04-09T12:29:41.778Z,101148.29
2023-04-09T12:32:12.371Z,101148.98
2023-04-09T12:34:43.448Z,101152.23
2023-04-09T12:37:14.173Z,101148.17
2023-04-09T12:39:44.613Z,101149.17
2023-04-09T12:42:15.019Z,101145.21
2023-04-09T12:44:45.500Z,101139.55
2023-04-09T12:47:15.932Z,101145.02
2023-04-09T12:49:46.841Z,101144.30
2023-04-09T12:52:18.696Z,101146.66
2023-04-09T12:54:49.232Z,101147.85
2023-04-09T12:57:19.768Z,101144.89
2023-04-09T12:59:50.500Z,101141.04
2023-04-09T13:02:22.523Z,101139.46
2023-04-09T13:04:53.016Z,101141.24
2023-04-09T13:07:25.779Z,101134.95
2023-04-09T13:09:56.660Z,101132.78
2023-04-09T13:12:27.334Z,101134.71
2023-04-09T13:14:59.378Z,101132.13
2023-04-09T13:17:29.895Z,101134.61
2023-04-09T13:20:01.517Z,101137.17
2023-04-09T13:22:32.239Z,101135.95
2023-04-09T13:25:02.719Z,101135.61
2023-04-09T13:27:33.402Z,101137.35
2023-04-09T13:30:04.105Z,101138.75
2023-04-09T13:32:34.679Z,101136.41
2023-04-09T13:35:05.365Z,101134.90
2023-04-09T13:37:35.838Z,101136.44
2023-04-09T13:40:08.941Z,101133.85
2023-04-09T13:42:39.449Z,101129.85
2023-04-09T13:45:11.346Z,101127.11
2023-04-09T13:47:43.146Z,101129.65
2023-04-09T13:50:14.306Z,101134.11
2023-04-09T13:52:44.777Z,101130.95
2023-04-09T13:55:15.302Z,101135.33
2023-04-09T13:57:45.735Z,101133.97
2023-04-09T14:00:17.449Z,101130.08
2023-04-09T14:02:48.052Z,101133.83
2023-04-09T14:05:18.809Z,101131.04
2023-04-09T14:07:49.335Z,101134.85
2023-04-09T14:10:20.396Z,101134.59
2023-04-09T14:12:50.809Z,101136.42
2023-04-09T14:15:22.191Z,101135.03
2023-04-09T14:17:52.626Z,101131.61
2023-04-09T14:20:24.668Z,101131.25
2023-04-09T14:22:55.143Z,101131.86
2023-04-09T14:25:25.591Z,101133.17
2023-04-09T14:27:56.940Z,101133.30
2023-04-09T14:30:27.486Z,101131.51
2023-04-09T14:32:57.995Z,101132.92
2023-04-09T14:35:28.783Z,101130.87
2023-04-09T14:37:59.338Z,101130.55
2023-04-09T14:40:29.899Z,101130.16
2023-04-09T14:43:01.166Z,101127.70
2023-04-09T14:45:32.281Z,101127.28
2023-04-09T14:48:02.884Z,101126.70
2023-04-09T14:50:34.876Z,101125.36
2023-04-09T14:53:05.417Z,101124.40
2023-04-09T14:55:35.922Z,101125.98
2023-04-09T14:58:08.260Z,101123.45
2023-04-09T15:00:39.100Z,101120.73
2023-04-09T15:03:09.814Z,101121.58
2023-04-09T15:05:40.938Z,101119.00
2023-04-09T15:08:11.396Z,101117.05
2023-04-09T15:10:41.862Z,101117.52
2023-04-09T15:13:12.435Z,101118.14
2023-04-09T15:15:44.997Z,101118.75
2023-04-09T15:18:15.472Z,101115.88
2023-04-09T15:20:45.946Z,101118.34
2023-04-09T15:23:16.502Z,101116.99
2023-04-09T15:25:47.053Z,101118.06
2023-04-09T15:28:17.553Z,101120.85
2023-04-09T15:30:48.036Z,101118.79
2023-04-09T15:33:18.513Z,101119.85
2023-04-09T15:35:49.003Z,101121.70
2023-04-09T15:38:21.619Z,101116.33
2023-04-09T15:40:52.067Z,101116.48
2023-04-09T15:43:23.288Z,101118.56
2023-04-09T15:45:54.123Z,101117.20
2023-04-09T15:48:24.762Z,101113.80
2023-04-09T15:50:55.379Z,101111.95
2023-04-09T15:53:29.006Z,101110.92
2023-04-09T15:55:59.510Z,101109.20
2023-04-09T15:58:30.375Z,101110.90
2023-04-09T16:01:01.610Z,101106.44
2023-04-09T16:03:37.632Z,101105.88
2023-04-09T16:06:10.317Z,101106.46
2023-04-09T16:08:41.017Z,101106.58
2023-04-09T16:11:11.885Z,101107.37
2023-04-09T16:13:42.346Z,101108.66
2023-04-09T16:16:12.863Z,101107.92
2023-04-09T16:18:43.370Z,101105.34
2023-04-09T16:21:14.049Z,101112.05
2023-04-09T16:23:44.577Z,101109.80
2023-04-09T16:26:15.036Z,101108.16
2023-04-09T16:28:45.498Z,101110.40
2023-04-09T16:31:16.410Z,101107.56
2023-04-09T16:33:46.928Z,101105.84
2023-04-09T16:36:17.356Z,101104.36
2023-04-09T16:38:47.962Z,101102.50
2023-04-09T16:41:18.416Z,101101.83
2023-04-09T16:43:51.189Z,101101.78
2023-04-09T16:46:22.061Z,101103.00
2023-04-09T16:48:52.815Z,101104.03
2023-04-09T16:51:23.883Z,101104.67
2023-04-09T16:53:54.369Z,101107.19
2023-04-09T16:56:24.903Z,101106.12
2023-04-09T16:58:55.709Z,101110.85
2023-04-09T17:01:29.144Z,101111.67
2023-04-09T17:04:00.897Z,101109.20
2023-04-09T17:06:31.460Z,101110.67
2023-04-09T17:09:03.750Z,101116.42
2023-04-09T17:11:34.520Z,101116.66
2023-04-09T17:14:05.052Z,101118.25
2023-04-09T17:16:36.419Z,101117.97
2023-04-09T17:19:07.006Z,101122.98
2023-04-09T17:21:38.225Z,101120.95
2023-04-09T17:24:09.245Z,101119.64
2023-04-09T17:26:39.929Z,101123.45
2023-04-09T17:29:10.509Z,101123.28
2023-04-09T17:31:41.165Z,101123.64
2023-04-09T17:34:11.999Z,101126.03
2023-04-09T17:36:42.484Z,101129.08
2023-04-09T17:39:13.067Z,101127.34
2023-04-09T17:41:44.521Z,101127.99
2023-04-09T17:44:14.933Z,101129.11
2023-04-09T17:46:45.937Z,101133.77
2023-04-09T17:49:16.833Z,101140.14
2023-04-09T17:51:48.789Z,101134.83
2023-04-09T17:54:19.318Z,101132.91
2023-04-09T17:56:49.797Z,101134.94
2023-04-09T17:59:20.791Z,101136.78
2023-04-09T18:01:52.902Z,101135.51
2023-04-09T18:04:25.342Z,101140.73
2023-04-09T18:06:57.048Z,101139.75
2023-04-09T18:09:27.592Z,101145.48
2023-04-09T18:11:59.300Z,101142.08
2023-04-09T18:14:32.546Z,101143.27
2023-04-09T18:17:03.395Z,101142.24
2023-04-09T18:19:33.874Z,101146.69
2023-04-09T18:22:04.461Z,101145.34
2023-04-09T18:24:35.121Z,101148.04
2023-04-09T18:27:05.723Z,101150.92
2023-04-09T18:29:36.462Z,101150.73
2023-04-09T18:32:07.910Z,101152.73
2023-04-09T18:34:38.355Z,101156.09
2023-04-09T18:37:08.860Z,101157.44
2023-04-09T18:39:39.348Z,101157.54
2023-04-09T18:42:10.021Z,101158.80
2023-04-09T18:44:41.037Z,101160.08
2023-04-09T18:47:11.979Z,101163.04
2023-04-09T18:49:42.475Z,101168.39
2023-04-09T18:52:12.906Z,101169.61
2023-04-09T18:54:43.434Z,101170.83
2023-04-09T18:57:13.929Z,101176.30
2023-04-09T18:59:48.206Z,101176.98
2023-04-09T19:02:19.816Z,101177.61
2023-04-09T19:04:50.597Z,101179.27
2023-04-09T19:07:21.576Z,101180.64
2023-04-09T19:09:52.215Z,101182.55
2023-04-09T19:12:23.864Z,101185.53
2023-04-09T19:14:54.376Z,101184.69
2023-04-09T19:17:25.162Z,101184.86
2023-04-09T19:19:56.077Z,101184.71
2023-04-09T19:22:26.704Z,101191.06
2023-04-09T19:24:57.120Z,101189.04
2023-04-09T19:27:27.663Z,101189.34
2023-04-09T19:30:01.084Z,101193.20
2023-04-09T19:32:31.636Z,101190.89
2023-04-09T19:35:02.203Z,101190.81
2023-04-09T19:37:32.954Z,101191.46
2023-04-09T19:40:04.733Z,101191.85
2023-04-09T19:42:35.547Z,101195.98
2023-04-09T19:45:06.942Z,101194.44
2023-04-09T19:47:37.406Z,101196.55
2023-04-09T19:50:09.452Z,101193.88
2023-04-09T19:52:41.149Z,101193.93
2023-04-09T19:55:12.748Z,101196.36
2023-04-09T19:57:44.294Z,101196.05
2023-04-09T20:00:16.433Z,101197.58
2023-04-09T20:02:48.054Z,101194.70
2023-04-09T20:05:21.067Z,101197.02
2023-04-09T20:07:52.793Z,101197.63
2023-04-09T20:10:23.401Z,101201.80
2023-04-09T20:12:54.033Z,101200.86
2023-04-09T20:15:24.984Z,101197.83
2023-04-09T20:17:55.669Z,101204.15
2023-04-09T20:20:26.223Z,101198.35
2023-04-09T20:22:57.665Z,101199.05
2023-04-09T20:25:34.019Z,101200.88
2023-04-09T20:28:05.230Z,101198.20
2023-04-09T20:30:35.796Z,101198.46
2023-04-09T20:33:06.706Z,101205.77
2023-04-09T20:35:37.853Z,101202.84
2023-04-09T20:38:08.279Z,101204.60
2023-04-09T20:40:39.341Z,101205.00
2023-04-09T20:43:09.810Z,101206.21
2023-04-09T20:45:40.684Z,101202.10
2023-04-09T20:48:12.049Z,101201.05
2023-04-09T20:50:42.722Z,101200.86
2023-04-09T20:53:13.316Z,101199.80
2023-04-09T20:55:43.848Z,101194.96
2023-04-09T20:58:14.254Z,101194.73
2023-04-09T21:00:44.688Z,101195.30
2023-04-09T21:03:16.242Z,101200.14
2023-04-09T21:05:46.815Z,101202.00
2023-04-09T21:08:17.400Z,101203.02
2023-04-09T21:10:47.968Z,101200.80
2023-04-09T21:13:18.395Z,101199.92
2023-04-09T21:15:49.521Z,101202.55
2023-04-09T21:18:20.151Z,101198.70
2023-04-09T21:20:51.193Z,101198.66
2023-04-09T21:23:21.651Z,101202.92
2023-04-09T21:25:52.078Z,101203.42
2023-04-09T21:28:22.515Z,101200.09
2023-04-09T21:30:52.967Z,101201.23
2023-04-09T21:33:23.539Z,101199.25
2023-04-09T21:35:55.957Z,101196.54
2023-04-09T21:38:27.048Z,101196.73
2023-04-09T21:40:57.494Z,101193.32
2023-04-09T21:43:29.326Z,101194.17
2023-04-09T21:46:00.323Z,101194.65
2023-04-09T21:48:30.942Z,101195.44
2023-04-09T21:51:01.593Z,101196.90
2023-04-09T21:53:32.904Z,101195.95
2023-04-09T21:56:04.926Z,101197.45
2023-04-09T21:58:35.801Z,101196.20
2023-04-09T22:01:13.100Z,101201.71
2023-04-09T22:03:53.030Z,101200.36
2023-04-09T22:06:23.677Z,101200.23
2023-04-09T22:08:56.851Z,101203.83
2023-04-09T22:11:29.016Z,101206.04
2023-04-09T22:13:59.660Z,101206.03
2023-04-09T22:16:30.178Z,101203.25
2023-04-09T22:19:00.789Z,101200.98
2023-04-09T22:21:31.683Z,101199.98
2023-04-09T22:24:02.120Z,101201.86
2023-04-09T22:26:33.411Z,101204.14
2023-04-09T22:29:06.864Z,101200.79
2023-04-09T22:31:37.602Z,101201.27
2023-04-09T22:34:20.013Z,101198.19
2023-04-09T22:36:51.864Z,101194.41
2023-04-09T22:39:22.469Z,101195.80
2023-04-09T22:41:53.406Z,101194.55
2023-04-09T22:44:24.043Z,101194.72
2023-04-09T22:46:54.496Z,101193.67
2023-04-09T22:49:26.021Z,101199.81
2023-04-09T22:51:57.169Z,101193.48
2023-04-09T22:54:30.729Z,101195.24
2023-04-09T22:57:01.293Z,101192.77
2023-04-09T22:59:40.285Z,101194.41
2023-04-09T23:02:11.640Z,101196.02
2023-04-09T23:04:42.248Z,101197.73
2023-04-09T23:07:13.073Z,101197.52
2023-04-09T23:09:43.499Z,101196.80
2023-04-09T23:12:13.940Z,101195.19
2023-04-09T23:14:44.358Z,101198.55
2023-04-09T23:17:15.881Z,101197.96
2023-04-09T23:19:46.311Z,101193.54
2023-04-09T23:22:16.776Z,101192.11
2023-04-09T23:24:47.242Z,101190.13
2023-04-09T23:27:17.685Z,101188.97
2023-04-09T23:29:48.226Z,101183.84
2023-04-09T23:32:18.691Z,101184.73
2023-04-09T23:34:49.159Z,101182.20
2023-04-09T23:37:19.917Z,101187.02
2023-04-09T23:39:50.448Z,101188.28
2023-04-09T23:42:21.214Z,101185.19
2023-04-09T23:44:51.692Z,101187.77
2023-04-09T23:47:22.257Z,101189.22
2023-04-09T23:49:52.837Z,101186.05
2023-04-09T23:52:23.259Z,101182.73
2023-04-09T23:54:54.138Z,101183.13
2023-04-09T23:57:24.561Z,101189.19
2023-04-09T23:59:55.090Z,101187.70
